Time;durP1;ratioP1;P1;durP2;ratioP2;P2;SDS_P1;SDS_P2;PMS_P1;PMS_P2;Temp;Humidity;BMP_temperature;BMP_pressure;BME280_temperature;BME280_humidity;BME280_pressure;Samples;Min_cycle;Max_cycle;Signal;HPM_P1;HPM_P2
2021/12/07 00:01:59;;;;;;;59.38;37.20;;;;;;;;;;1805349;78;21137;-78
2021/12/07 00:04:30;;;;;;;54.67;36.95;;;;;;;;;;1810652;78;21593;-77
2021/12/07 00:07:01;;;;;;;63.68;41.00;;;;;;;;;;1810149;78;21132;-77
2021/12/07 00:09:31;;;;;;;66.77;41.80;;;;;;;;;;1809191;78;21691;-77
2021/12/07 00:12:04;;;;;;;65.57;42.03;;;;;;;;;;1805727;78;21629;-77
2021/12/07 00:14:39;;;;;;;62.73;42.13;;;;;;;;;;1795862;78;21107;-78
2021/12/07 00:17:06;;;;;;;62.00;40.30;;;;;;;;;;1793976;79;21123;-72
2021/12/07 00:19:36;;;;;;;58.20;38.67;;;;;;;;;;1793785;80;21228;-72
2021/12/07 00:22:08;;;;;;;62.40;39.15;;;;;;;;;;1790881;79;21162;-72
2021/12/07 00:24:39;;;;;;;58.58;37.50;;;;;;;;;;1752176;79;21604;-71
2021/12/07 00:27:09;;;;;;;63.80;38.40;;;;;;;;;;1819635;77;21536;-72
2021/12/07 00:29:39;;;;;;;62.00;37.60;;;;;;;;;;1827026;77;21819;-72
2021/12/07 00:34:57;;;;;;;59.80;36.83;;;;;;;;;;1823043;78;21235;-72
2021/12/07 00:37:13;;;;;;;49.42;34.13;;;;;;;;;;1823862;77;21594;-72
2021/12/07 00:39:44;;;;;;;51.90;32.75;;;;;;;;;;1827956;77;21535;-72
2021/12/07 00:42:14;;;;;;;46.25;30.35;;;;;;;;;;1824569;77;21279;-72
2021/12/07 00:44:44;;;;;;;47.20;32.05;;;;;;;;;;1828076;77;21122;-72
2021/12/07 00:47:14;;;;;;;46.23;31.25;;;;;;;;;;1831464;77;21075;-72
2021/12/07 00:49:44;;;;;;;54.03;31.90;;;;;;;;;;1828582;77;21178;-71
2021/12/07 00:52:14;;;;;;;46.08;30.10;;;;;;;;;;1829464;77;21071;-72
2021/12/07 00:54:44;;;;;;;42.08;28.87;;;;;;;;;;1828712;77;21354;-73
2021/12/07 00:57:14;;;;;;;41.63;29.20;;;;;;;;;;1826957;77;21212;-72
2021/12/07 00:59:44;;;;;;;46.48;30.08;;;;;;;;;;1824942;77;21582;-73
2021/12/07 01:02:14;;;;;;;45.60;30.52;;;;;;;;;;1839489;77;21044;-72
2021/12/07 01:05:10;;;;;;;47.98;31.65;;;;;;;;;;1831875;77;21942;-72
2021/12/07 01:25:18;;;;;;;39.70;25.12;;;;;;;;;;1846094;76;21189;-71
2021/12/07 01:27:51;;;;;;;37.45;24.95;;;;;;;;;;1845911;76;21189;-72
2021/12/07 01:30:37;;;;;;;38.73;26.12;;;;;;;;;;1829051;76;21252;-72
2021/12/07 01:49:41;;;;;;;65.20;24.23;;;;;;;;;;1798637;79;21214;-73
2021/12/07 01:53:17;;;;;;;36.08;24.43;;;;;;;;;;1786829;79;21193;-74
2021/12/07 02:00:34;;;;;;;35.08;24.23;;;;;;;;;;1796366;79;21172;-72
2021/12/07 02:03:07;;;;;;;32.85;22.93;;;;;;;;;;1791662;79;21208;-73
2021/12/07 02:05:38;;;;;;;33.78;24.12;;;;;;;;;;1781892;79;22030;-72
2021/12/07 02:08:08;;;;;;;34.55;23.92;;;;;;;;;;1801508;78;21840;-73
2021/12/07 02:10:39;;;;;;;35.40;22.15;;;;;;;;;;1810138;78;21669;-72
2021/12/07 02:15:41;;;;;;;34.00;23.87;;;;;;;;;;1806025;77;21206;-72
2021/12/07 02:18:11;;;;;;;35.92;22.13;;;;;;;;;;1810457;78;21096;-73
2021/12/07 02:20:42;;;;;;;32.45;23.60;;;;;;;;;;1795217;78;21234;-73
2021/12/07 02:23:12;;;;;;;34.23;22.22;;;;;;;;;;1803423;77;21088;-73
2021/12/07 02:25:43;;;;;;;33.08;20.52;;;;;;;;;;1811506;77;21688;-73
2021/12/07 02:28:15;;;;;;;27.40;20.08;;;;;;;;;;1807742;77;21143;-73
2021/12/07 02:30:46;;;;;;;34.58;20.52;;;;;;;;;;1811079;77;21127;-72
2021/12/07 02:33:16;;;;;;;26.55;19.02;;;;;;;;;;1806232;78;21102;-72
2021/12/07 02:35:46;;;;;;;28.02;19.77;;;;;;;;;;1807298;77;21104;-72
2021/12/07 02:38:16;;;;;;;31.23;20.00;;;;;;;;;;1809820;77;21230;-72
2021/12/07 02:40:48;;;;;;;26.20;18.82;;;;;;;;;;1805652;77;21674;-73
2021/12/07 02:43:18;;;;;;;27.62;18.45;;;;;;;;;;1801047;78;21654;-72
2021/12/07 02:45:51;;;;;;;25.10;18.50;;;;;;;;;;1811592;77;21230;-71
2021/12/07 02:48:25;;;;;;;28.42;17.70;;;;;;;;;;1804922;78;21693;-72
2021/12/07 02:50:58;;;;;;;28.25;18.15;;;;;;;;;;1803033;77;21711;-72
2021/12/07 02:53:29;;;;;;;27.10;18.50;;;;;;;;;;1808413;77;21229;-72
2021/12/07 02:56:00;;;;;;;29.75;18.23;;;;;;;;;;1811675;77;21682;-72
2021/12/07 02:58:31;;;;;;;30.55;18.00;;;;;;;;;;1809249;79;21625;-72
2021/12/07 03:01:07;;;;;;;27.90;18.50;;;;;;;;;;1810459;78;21216;-72
2021/12/07 03:03:39;;;;;;;30.57;18.15;;;;;;;;;;1811777;78;21151;-72
2021/12/07 03:26:26;;;;;;;31.48;17.05;;;;;;;;;;1848631;76;21165;-73
2021/12/07 03:28:59;;;;;;;24.50;16.57;;;;;;;;;;1840862;76;21094;-71
2021/12/07 03:31:30;;;;;;;28.32;16.25;;;;;;;;;;1783730;79;21227;-73
2021/12/07 03:34:01;;;;;;;26.62;16.80;;;;;;;;;;1851111;76;21142;-72
2021/12/07 03:36:32;;;;;;;28.30;17.57;;;;;;;;;;1858066;76;21055;-73
2021/12/07 03:39:04;;;;;;;24.37;16.05;;;;;;;;;;1846852;76;21630;-73
2021/12/07 03:41:34;;;;;;;23.22;15.55;;;;;;;;;;1842362;76;21695;-72
2021/12/07 03:44:05;;;;;;;28.15;16.57;;;;;;;;;;1842730;76;21176;-72
2021/12/07 03:46:35;;;;;;;27.40;15.80;;;;;;;;;;1846330;76;21103;-72
2021/12/07 03:49:06;;;;;;;28.57;15.50;;;;;;;;;;1840532;76;21153;-72
2021/12/07 03:51:36;;;;;;;24.15;15.23;;;;;;;;;;1842659;76;21286;-73
2021/12/07 03:54:08;;;;;;;24.02;14.28;;;;;;;;;;1834576;76;21247;-73
2021/12/07 03:56:39;;;;;;;21.70;14.03;;;;;;;;;;1834070;76;21574;-73
2021/12/07 03:59:10;;;;;;;24.65;14.23;;;;;;;;;;1837912;76;21220;-71
2021/12/07 04:01:40;;;;;;;25.02;15.23;;;;;;;;;;1843690;76;21177;-71
2021/12/07 04:04:11;;;;;;;25.27;14.53;;;;;;;;;;1840024;76;21671;-72
2021/12/07 04:06:47;;;;;;;25.57;14.60;;;;;;;;;;1845019;76;21226;-74
2021/12/07 04:09:14;;;;;;;24.15;13.80;;;;;;;;;;1842199;76;21240;-71
2021/12/07 04:11:45;;;;;;;19.67;13.85;;;;;;;;;;1832413;76;21087;-72
2021/12/07 04:14:15;;;;;;;22.32;14.07;;;;;;;;;;1834204;78;21122;-72
2021/12/07 04:16:46;;;;;;;26.33;16.50;;;;;;;;;;1777471;79;21145;-72
2021/12/07 04:19:16;;;;;;;20.95;14.47;;;;;;;;;;1834787;76;21189;-74
2021/12/07 04:21:50;;;;;;;24.10;14.53;;;;;;;;;;1817057;77;21129;-70
2021/12/07 04:24:20;;;;;;;20.90;14.28;;;;;;;;;;1834652;76;21212;-71
2021/12/07 04:26:52;;;;;;;24.00;14.18;;;;;;;;;;1832691;76;21208;-72
2021/12/07 04:29:22;;;;;;;27.55;13.55;;;;;;;;;;1840608;76;21566;-74
2021/12/07 04:31:53;;;;;;;20.35;14.60;;;;;;;;;;1841004;76;21126;-72
2021/12/07 04:34:23;;;;;;;25.40;14.25;;;;;;;;;;1840065;76;21390;-73
2021/12/07 04:36:53;;;;;;;23.00;13.83;;;;;;;;;;1835252;76;21129;-71
2021/12/07 04:39:24;;;;;;;22.52;13.88;;;;;;;;;;1832714;76;21691;-72
2021/12/07 04:41:54;;;;;;;23.60;13.72;;;;;;;;;;1794295;79;21609;-73
2021/12/07 04:44:24;;;;;;;21.07;14.43;;;;;;;;;;1867508;76;21177;-72
2021/12/07 04:47:10;;;;;;;25.35;15.48;;;;;;;;;;1840571;76;21192;-71
2021/12/07 04:59:31;;;;;;;23.55;14.68;;;;;;;;;;1835733;76;21240;-72
2021/12/07 05:02:02;;;;;;;20.25;13.55;;;;;;;;;;1838870;76;21143;-71
2021/12/07 05:04:36;;;;;;;19.67;13.18;;;;;;;;;;1827071;78;21055;-73
2021/12/07 05:07:17;;;;;;;22.42;13.35;;;;;;;;;;1836247;76;21181;-75
2021/12/07 05:14:44;;;;;;;17.45;13.05;;;;;;;;;;1824474;76;21122;-75
2021/12/07 05:25:19;;;;;;;20.43;12.13;;;;;;;;;;1837636;76;21575;-71
2021/12/07 05:39:55;;;;;;;17.65;11.70;;;;;;;;;;1804640;78;21150;-71
2021/12/07 05:42:26;;;;;;;22.90;12.13;;;;;;;;;;1806046;78;21146;-72
2021/12/07 05:44:56;;;;;;;22.62;12.88;;;;;;;;;;1801303;79;21197;-72
2021/12/07 05:47:26;;;;;;;19.65;12.33;;;;;;;;;;1809400;77;21300;-71
2021/12/07 05:49:56;;;;;;;18.12;12.70;;;;;;;;;;1800860;79;21209;-71
2021/12/07 05:52:26;;;;;;;19.65;12.73;;;;;;;;;;1806258;79;21215;-72
2021/12/07 05:54:56;;;;;;;22.25;12.35;;;;;;;;;;1802677;79;21169;-72
2021/12/07 05:57:27;;;;;;;17.40;12.18;;;;;;;;;;1805669;79;21059;-70
2021/12/07 05:59:57;;;;;;;18.98;11.68;;;;;;;;;;1803867;78;21146;-72
2021/12/07 06:02:28;;;;;;;16.77;11.48;;;;;;;;;;1808946;77;21142;-72
2021/12/07 06:04:58;;;;;;;17.48;11.68;;;;;;;;;;1803882;79;21143;-72
2021/12/07 06:07:28;;;;;;;20.08;11.05;;;;;;;;;;1808299;77;21141;-72
2021/12/07 06:10:01;;;;;;;17.42;10.82;;;;;;;;;;1810060;77;21166;-71
2021/12/07 06:12:31;;;;;;;17.90;11.78;;;;;;;;;;1806956;77;21675;-71
2021/12/07 06:15:02;;;;;;;19.17;11.48;;;;;;;;;;1808021;77;21178;-71
2021/12/07 06:17:32;;;;;;;21.27;11.95;;;;;;;;;;1810891;77;21150;-71
2021/12/07 06:20:03;;;;;;;19.60;12.05;;;;;;;;;;1809769;77;21220;-70
2021/12/07 06:22:34;;;;;;;18.42;11.68;;;;;;;;;;1805043;78;21628;-72
2021/12/07 06:25:05;;;;;;;20.82;12.10;;;;;;;;;;1810351;78;21110;-73
2021/12/07 06:27:35;;;;;;;15.00;11.25;;;;;;;;;;1812346;77;21597;-72
2021/12/07 06:30:06;;;;;;;14.85;10.43;;;;;;;;;;1806018;77;21103;-71
2021/12/07 06:32:36;;;;;;;19.57;10.20;;;;;;;;;;1831430;77;21183;-72
2021/12/07 06:35:07;;;;;;;15.95;10.78;;;;;;;;;;1810843;78;21134;-72
2021/12/07 06:37:39;;;;;;;18.00;10.03;;;;;;;;;;1808560;77;21168;-72
2021/12/07 06:40:11;;;;;;;16.30;10.38;;;;;;;;;;1812354;78;21122;-71
2021/12/07 06:42:41;;;;;;;17.15;10.13;;;;;;;;;;1811590;77;21212;-73
2021/12/07 06:45:13;;;;;;;16.80;10.85;;;;;;;;;;1816283;77;21135;-71
2021/12/07 06:47:43;;;;;;;16.67;11.68;;;;;;;;;;1803153;77;21558;-72
2021/12/07 06:50:14;;;;;;;16.02;9.70;;;;;;;;;;1807991;78;21142;-70
2021/12/07 06:52:44;;;;;;;12.65;9.43;;;;;;;;;;1806916;79;21126;-71
2021/12/07 06:55:16;;;;;;;15.50;9.63;;;;;;;;;;1807062;77;21259;-70
2021/12/07 06:57:46;;;;;;;16.45;11.03;;;;;;;;;;1807165;78;21162;-72
2021/12/07 07:00:17;;;;;;;22.35;10.75;;;;;;;;;;1806372;79;21753;-72
2021/12/07 07:02:48;;;;;;;16.90;10.50;;;;;;;;;;1806976;77;21181;-74
2021/12/07 07:05:19;;;;;;;15.70;11.15;;;;;;;;;;1807785;77;21130;-74
2021/12/07 07:07:49;;;;;;;17.30;11.90;;;;;;;;;;1805432;78;21224;-73
2021/12/07 07:10:20;;;;;;;15.70;10.53;;;;;;;;;;1808976;77;21755;-73
2021/12/07 07:12:51;;;;;;;12.80;9.15;;;;;;;;;;1805687;77;21126;-72
2021/12/07 07:15:22;;;;;;;13.93;9.38;;;;;;;;;;1804740;79;21116;-72
2021/12/07 07:17:55;;;;;;;16.37;10.48;;;;;;;;;;1808561;77;21116;-73
2021/12/07 07:20:25;;;;;;;17.00;10.35;;;;;;;;;;1808003;78;21638;-73
2021/12/07 07:22:57;;;;;;;17.77;10.68;;;;;;;;;;1807129;77;21150;-73
2021/12/07 07:25:26;;;;;;;18.25;11.73;;;;;;;;;;1807668;77;21106;-73
2021/12/07 07:27:57;;;;;;;22.25;11.57;;;;;;;;;;1806175;78;21216;-71
2021/12/07 07:30:27;;;;;;;17.15;10.18;;;;;;;;;;1810009;77;21216;-72
2021/12/07 07:32:59;;;;;;;16.50;9.90;;;;;;;;;;1808984;77;21487;-73
2021/12/07 07:35:30;;;;;;;15.05;10.20;;;;;;;;;;1803481;77;21205;-70
2021/12/07 07:38:00;;;;;;;15.00;10.15;;;;;;;;;;1788464;78;21149;-73
2021/12/07 07:40:30;;;;;;;13.32;9.33;;;;;;;;;;1811590;78;21661;-71
2021/12/07 07:43:00;;;;;;;15.13;9.93;;;;;;;;;;1808868;78;21149;-73
2021/12/07 07:45:30;;;;;;;25.37;11.88;;;;;;;;;;1811171;77;21150;-73
2021/12/07 07:48:00;;;;;;;16.48;9.25;;;;;;;;;;1807106;77;21110;-72
2021/12/07 07:50:31;;;;;;;15.60;8.95;;;;;;;;;;1808999;77;21645;-72
2021/12/07 07:53:01;;;;;;;12.47;9.00;;;;;;;;;;1826044;77;21087;-70
2021/12/07 07:55:31;;;;;;;16.27;9.55;;;;;;;;;;1810665;77;21192;-70
2021/12/07 07:58:01;;;;;;;14.93;9.18;;;;;;;;;;1799656;77;21155;-71
2021/12/07 08:00:32;;;;;;;16.23;9.75;;;;;;;;;;1729709;82;21167;-72
2021/12/07 08:03:03;;;;;;;13.58;9.60;;;;;;;;;;1810899;77;21168;-72
2021/12/07 08:05:33;;;;;;;15.13;9.40;;;;;;;;;;1804979;78;21194;-72
2021/12/07 08:08:03;;;;;;;16.37;9.28;;;;;;;;;;1808223;77;21237;-72
2021/12/07 08:10:33;;;;;;;17.25;9.28;;;;;;;;;;1809649;75;21185;-72
2021/12/07 08:13:06;;;;;;;13.93;9.10;;;;;;;;;;1833291;77;21236;-71
2021/12/07 08:15:38;;;;;;;19.65;9.85;;;;;;;;;;1825323;77;21180;-71
2021/12/07 08:18:09;;;;;;;15.05;9.63;;;;;;;;;;1834886;77;21680;-70
2021/12/07 08:20:39;;;;;;;19.30;10.28;;;;;;;;;;1835345;77;21091;-73
2021/12/07 08:23:09;;;;;;;16.90;10.13;;;;;;;;;;1840875;77;21102;-71
2021/12/07 08:25:41;;;;;;;15.40;10.00;;;;;;;;;;1826481;78;21129;-72
2021/12/07 08:28:13;;;;;;;14.47;9.73;;;;;;;;;;1829436;77;21247;-71
2021/12/07 08:30:43;;;;;;;16.67;9.70;;;;;;;;;;1823912;78;21152;-71
2021/12/07 08:33:14;;;;;;;16.10;9.83;;;;;;;;;;1829054;77;21132;-72
2021/12/07 08:35:44;;;;;;;19.27;10.40;;;;;;;;;;1828994;77;21287;-72
2021/12/07 08:38:14;;;;;;;15.15;9.85;;;;;;;;;;1826986;77;21258;-73
2021/12/07 08:40:45;;;;;;;15.63;10.03;;;;;;;;;;1832421;77;21118;-71
2021/12/07 08:43:15;;;;;;;17.12;9.83;;;;;;;;;;1826236;77;21090;-71
2021/12/07 08:45:45;;;;;;;13.85;9.00;;;;;;;;;;1832225;77;21533;-71
2021/12/07 08:48:17;;;;;;;15.72;10.23;;;;;;;;;;1833233;77;21168;-71
2021/12/07 08:50:47;;;;;;;15.98;9.85;;;;;;;;;;1831057;78;21148;-69
2021/12/07 08:53:18;;;;;;;15.60;10.13;;;;;;;;;;1836850;77;21111;-70
2021/12/07 09:00:53;;;;;;;17.25;10.45;;;;;;;;;;1793047;78;21691;-71
2021/12/07 09:03:24;;;;;;;16.40;10.72;;;;;;;;;;1796563;78;21172;-71
2021/12/07 09:05:54;;;;;;;15.93;9.80;;;;;;;;;;1791722;78;21112;-70
2021/12/07 09:08:25;;;;;;;17.67;9.88;;;;;;;;;;1796792;78;21141;-71
2021/12/07 09:10:55;;;;;;;18.67;9.93;;;;;;;;;;1795213;78;21576;-71
2021/12/07 09:13:27;;;;;;;20.70;11.20;;;;;;;;;;1817462;77;21274;-72
2021/12/07 09:16:01;;;;;;;13.78;9.35;;;;;;;;;;1809888;77;21156;-72
2021/12/07 09:18:31;;;;;;;14.43;9.78;;;;;;;;;;1809904;77;21209;-72
2021/12/07 09:21:03;;;;;;;20.00;9.70;;;;;;;;;;1812750;77;21216;-71
2021/12/07 09:23:33;;;;;;;19.65;11.83;;;;;;;;;;1809062;77;21158;-71
2021/12/07 09:26:05;;;;;;;19.10;10.13;;;;;;;;;;1810119;77;21161;-72
2021/12/07 09:28:37;;;;;;;18.25;10.50;;;;;;;;;;1809569;77;21205;-72
2021/12/07 09:31:09;;;;;;;16.35;10.95;;;;;;;;;;1811601;77;21585;-72
2021/12/07 09:33:43;;;;;;;16.42;9.93;;;;;;;;;;1812973;78;21134;-71
2021/12/07 09:36:14;;;;;;;13.38;9.80;;;;;;;;;;1818716;77;21193;-75
2021/12/07 09:38:45;;;;;;;14.47;9.15;;;;;;;;;;1810858;77;21098;-74
2021/12/07 09:41:15;;;;;;;16.05;9.75;;;;;;;;;;1813807;77;21106;-74
2021/12/07 09:43:46;;;;;;;16.77;10.70;;;;;;;;;;1811267;77;21130;-71
2021/12/07 09:46:17;;;;;;;16.32;10.20;;;;;;;;;;1807458;77;21130;-71
2021/12/07 09:48:51;;;;;;;18.30;9.68;;;;;;;;;;1809992;77;21142;-72
2021/12/07 09:51:22;;;;;;;16.17;9.53;;;;;;;;;;1810667;77;21181;-73
2021/12/07 09:53:56;;;;;;;16.27;11.68;;;;;;;;;;1820915;77;21221;-72
2021/12/07 09:56:29;;;;;;;22.87;11.95;;;;;;;;;;1804846;77;21130;-77
2021/12/07 09:59:01;;;;;;;17.82;11.22;;;;;;;;;;1813378;77;21188;-78
2021/12/07 10:01:32;;;;;;;18.07;11.18;;;;;;;;;;1824368;77;21182;-74
2021/12/07 10:04:03;;;;;;;15.18;10.72;;;;;;;;;;1815152;77;21102;-75
2021/12/07 10:06:38;;;;;;;20.32;10.40;;;;;;;;;;1809812;77;21558;-76
2021/12/07 10:09:08;;;;;;;24.65;11.25;;;;;;;;;;1805687;77;21221;-72
2021/12/07 10:11:39;;;;;;;23.22;11.28;;;;;;;;;;1817930;77;21102;-74
2021/12/07 10:14:09;;;;;;;18.57;11.18;;;;;;;;;;1817132;77;21275;-73
2021/12/07 10:16:40;;;;;;;20.17;10.98;;;;;;;;;;1831557;76;21189;-74
2021/12/07 10:19:11;;;;;;;19.48;10.72;;;;;;;;;;1833988;77;21132;-71
2021/12/07 10:21:42;;;;;;;20.65;11.20;;;;;;;;;;1831907;77;21065;-73
2021/12/07 10:24:21;;;;;;;18.55;10.78;;;;;;;;;;1829287;77;21714;-71
2021/12/07 10:26:44;;;;;;;17.32;11.65;;;;;;;;;;1829312;77;21086;-71
2021/12/07 10:29:17;;;;;;;23.07;11.73;;;;;;;;;;1834434;77;21605;-73
2021/12/07 10:31:50;;;;;;;23.22;12.90;;;;;;;;;;1833851;77;21124;-73
2021/12/07 10:34:21;;;;;;;21.77;12.20;;;;;;;;;;1839211;77;21596;-72
2021/12/07 10:36:57;;;;;;;23.83;11.97;;;;;;;;;;1825038;77;21078;-71
2021/12/07 10:39:30;;;;;;;22.07;11.48;;;;;;;;;;1826826;77;21160;-73
2021/12/07 10:42:02;;;;;;;17.57;11.18;;;;;;;;;;1829704;77;21149;-71
2021/12/07 10:44:34;;;;;;;24.05;11.35;;;;;;;;;;1830642;77;21204;-72
2021/12/07 10:47:07;;;;;;;26.52;12.80;;;;;;;;;;1829055;77;21204;-71
2021/12/07 10:49:42;;;;;;;28.55;14.10;;;;;;;;;;1830587;77;21791;-71
2021/12/07 10:52:13;;;;;;;27.70;17.17;;;;;;;;;;1836248;77;21134;-72
2021/12/07 10:54:46;;;;;;;28.02;17.82;;;;;;;;;;1829241;77;21144;-72
2021/12/07 10:57:17;;;;;;;34.40;18.57;;;;;;;;;;1825696;77;21207;-73
2021/12/07 10:59:48;;;;;;;28.50;17.25;;;;;;;;;;1831114;77;21082;-71
2021/12/07 11:02:20;;;;;;;28.55;17.82;;;;;;;;;;1826164;77;21236;-71
2021/12/07 11:04:52;;;;;;;22.73;14.70;;;;;;;;;;1827717;77;21164;-71
2021/12/07 11:07:24;;;;;;;23.65;15.72;;;;;;;;;;1830906;77;21188;-72
2021/12/07 11:09:59;;;;;;;24.25;16.30;;;;;;;;;;1833996;77;21214;-72
2021/12/07 11:12:30;;;;;;;33.35;17.20;;;;;;;;;;1831163;77;21185;-71
2021/12/07 11:15:01;;;;;;;28.77;16.30;;;;;;;;;;1830514;77;21121;-71
2021/12/07 11:17:32;;;;;;;35.50;20.08;;;;;;;;;;1812373;77;21150;-72
2021/12/07 11:20:04;;;;;;;27.58;18.27;;;;;;;;;;1813397;77;21212;-73
2021/12/07 11:22:35;;;;;;;38.20;20.90;;;;;;;;;;1806209;77;21711;-72
2021/12/07 11:25:07;;;;;;;36.73;21.12;;;;;;;;;;1807132;77;21194;-81
2021/12/07 11:30:30;;;;;;;31.68;19.48;;;;;;;;;;1747827;80;21197;-87
2021/12/07 11:33:05;;;;;;;36.85;19.90;;;;;;;;;;1748057;80;21595;-88
2021/12/07 11:35:34;;;;;;;33.88;20.80;;;;;;;;;;1749019;80;21592;-89
2021/12/07 11:38:06;;;;;;;39.70;21.93;;;;;;;;;;1687163;83;21578;-88
2021/12/07 11:40:49;;;;;;;32.53;21.85;;;;;;;;;;1752136;80;21170;-88
2021/12/07 11:43:16;;;;;;;41.20;21.27;;;;;;;;;;1747449;81;21143;-87
2021/12/07 11:45:47;;;;;;;35.00;22.40;;;;;;;;;;1748901;81;21183;-87
2021/12/07 11:48:36;;;;;;;38.53;21.27;;;;;;;;;;1636671;87;21201;-86
2021/12/07 11:51:27;;;;;;;39.75;22.07;;;;;;;;;;1668323;84;21235;-87
2021/12/07 11:54:00;;;;;;;35.20;22.60;;;;;;;;;;1681073;81;21312;-86
2021/12/07 11:56:31;;;;;;;38.08;22.35;;;;;;;;;;1738832;81;21350;-87
2021/12/07 11:59:02;;;;;;;37.17;23.15;;;;;;;;;;1733168;81;21244;-87
2021/12/07 12:01:33;;;;;;;44.58;23.45;;;;;;;;;;1736539;80;21937;-88
2021/12/07 12:04:06;;;;;;;38.80;21.30;;;;;;;;;;1733819;81;21152;-89
2021/12/07 12:06:42;;;;;;;40.20;22.42;;;;;;;;;;1739503;81;21191;-89
2021/12/07 12:09:16;;;;;;;36.53;22.73;;;;;;;;;;1741761;81;21624;-90
2021/12/07 12:11:45;;;;;;;39.30;23.50;;;;;;;;;;1738971;81;21148;-88
2021/12/07 12:14:23;;;;;;;41.10;22.73;;;;;;;;;;1735327;81;21762;-89
2021/12/07 12:16:56;;;;;;;37.28;23.42;;;;;;;;;;1736785;81;21230;-88
2021/12/07 12:19:31;;;;;;;36.42;22.77;;;;;;;;;;1745677;79;21201;-88
2021/12/07 12:22:03;;;;;;;44.55;22.65;;;;;;;;;;1737058;81;21281;-89
2021/12/07 12:24:45;;;;;;;36.50;22.10;;;;;;;;;;1733317;81;21161;-89
2021/12/07 12:27:17;;;;;;;38.25;21.12;;;;;;;;;;1821835;77;21160;-89
2021/12/07 12:29:52;;;;;;;40.67;22.15;;;;;;;;;;1818795;77;21185;-88
2021/12/07 12:32:24;;;;;;;39.00;22.25;;;;;;;;;;1822876;77;21159;-89
2021/12/07 12:35:05;;;;;;;41.00;22.80;;;;;;;;;;1819989;77;21191;-87
2021/12/07 12:37:42;;;;;;;40.80;22.30;;;;;;;;;;1819570;77;21214;-91
2021/12/07 12:40:20;;;;;;;39.60;21.93;;;;;;;;;;1820534;77;21059;-88
2021/12/07 12:43:02;;;;;;;34.85;21.07;;;;;;;;;;1810406;77;21126;-88
2021/12/07 12:45:38;;;;;;;44.10;21.00;;;;;;;;;;1823633;77;21869;-87
2021/12/07 12:48:10;;;;;;;37.05;21.57;;;;;;;;;;1765505;80;21203;-88
2021/12/07 12:50:46;;;;;;;40.05;21.90;;;;;;;;;;1827242;77;21203;-88
2021/12/07 12:53:17;;;;;;;33.95;23.00;;;;;;;;;;1793498;77;21086;-88
2021/12/07 12:55:51;;;;;;;39.25;23.42;;;;;;;;;;1826723;77;21468;-89
2021/12/07 12:58:24;;;;;;;39.10;21.60;;;;;;;;;;1822133;77;21153;-89
2021/12/07 13:00:57;;;;;;;33.40;22.67;;;;;;;;;;1822843;77;21814;-88
2021/12/07 13:03:29;;;;;;;44.83;23.73;;;;;;;;;;1819654;77;21217;-87
2021/12/07 13:06:08;;;;;;;37.28;22.10;;;;;;;;;;1816901;77;21125;-87
2021/12/07 13:08:41;;;;;;;;;;;;;;;;;;1821391;77;21408;-86
2021/12/07 13:11:21;;;;;;;33.83;21.80;;;;;;;;;;1812071;77;20222;-87
2021/12/07 13:13:54;;;;;;;35.03;22.42;;;;;;;;;;1818092;76;21179;-88
2021/12/07 13:19:18;;;;;;;35.05;21.52;;;;;;;;;;1812659;77;21141;-89
2021/12/07 13:21:49;;;;;;;32.13;21.15;;;;;;;;;;1808544;75;21157;-89
2021/12/07 13:24:23;;;;;;;38.80;21.45;;;;;;;;;;1779146;79;21182;-89
2021/12/07 13:27:11;;;;;;;38.85;22.55;;;;;;;;;;1769574;80;21110;-89
2021/12/07 13:29:48;;;;;;;38.83;21.82;;;;;;;;;;1762676;80;21137;-89
2021/12/07 13:32:17;;;;;;;40.73;21.57;;;;;;;;;;1773565;80;21141;-89
2021/12/07 13:34:50;;;;;;;35.03;20.70;;;;;;;;;;1777450;79;21182;-89
2021/12/07 13:37:23;;;;;;;33.23;20.27;;;;;;;;;;1778768;80;21153;-89
2021/12/07 13:39:57;;;;;;;36.73;21.00;;;;;;;;;;1780579;80;21153;-88
2021/12/07 13:42:29;;;;;;;34.67;20.72;;;;;;;;;;1761217;80;21197;-89
2021/12/07 13:45:05;;;;;;;36.40;20.62;;;;;;;;;;1799676;79;21137;-89
2021/12/07 13:47:33;;;;;;;37.53;21.65;;;;;;;;;;1810656;77;21130;-90
2021/12/07 13:50:10;;;;;;;38.05;21.60;;;;;;;;;;1814882;77;21614;-89
2021/12/07 13:52:42;;;;;;;35.23;20.95;;;;;;;;;;1813982;77;21173;-89
2021/12/07 13:55:14;;;;;;;33.30;20.95;;;;;;;;;;1807543;77;21732;-89
2021/12/07 13:57:49;;;;;;;31.33;21.15;;;;;;;;;;1804867;79;21962;-89
2021/12/07 14:00:26;;;;;;;34.00;20.25;;;;;;;;;;1807920;77;21931;-88
2021/12/07 14:03:03;;;;;;;36.40;20.85;;;;;;;;;;1805802;78;21256;-89
2021/12/07 14:05:34;;;;;;;33.20;20.37;;;;;;;;;;1805047;78;21181;-88
2021/12/07 14:08:14;;;;;;;32.08;20.35;;;;;;;;;;1753184;80;21174;-88
2021/12/07 14:10:47;;;;;;;34.75;19.95;;;;;;;;;;1751265;80;21602;-89
2021/12/07 14:13:19;;;;;;;33.35;20.82;;;;;;;;;;1810711;78;21094;-88
2021/12/07 14:15:51;;;;;;;34.45;20.77;;;;;;;;;;1744016;80;21149;-88
2021/12/07 14:18:23;;;;;;;38.48;20.70;;;;;;;;;;1803323;77;21153;-88
2021/12/07 14:20:58;;;;;;;32.10;19.55;;;;;;;;;;1807438;78;21505;-88
2021/12/07 14:23:29;;;;;;;33.28;21.33;;;;;;;;;;1805597;79;21142;-87
2021/12/07 14:26:01;;;;;;;33.15;20.05;;;;;;;;;;1811024;75;21141;-88
2021/12/07 14:28:36;;;;;;;40.52;21.55;;;;;;;;;;1805598;79;21142;-89
2021/12/07 14:31:11;;;;;;;32.63;20.02;;;;;;;;;;1807883;77;21179;-89
2021/12/07 14:33:46;;;;;;;40.38;20.55;;;;;;;;;;1808488;78;21086;-87
2021/12/07 14:36:17;;;;;;;34.13;21.57;;;;;;;;;;1788817;79;21083;-88
2021/12/07 14:38:55;;;;;;;34.90;19.82;;;;;;;;;;1779698;79;21146;-88
2021/12/07 14:41:29;;;;;;;31.00;19.30;;;;;;;;;;1810192;77;21130;-88
2021/12/07 14:43:59;;;;;;;35.20;20.68;;;;;;;;;;1799339;78;21230;-88
2021/12/07 14:46:31;;;;;;;29.18;18.73;;;;;;;;;;1790022;77;21649;-88
2021/12/07 14:49:01;;;;;;;37.10;20.65;;;;;;;;;;1809303;77;21153;-87
2021/12/07 14:51:32;;;;;;;30.60;19.02;;;;;;;;;;1808415;77;21216;-87
2021/12/07 14:54:04;;;;;;;32.25;19.75;;;;;;;;;;1807338;78;21263;-87
2021/12/07 14:56:37;;;;;;;34.50;21.17;;;;;;;;;;1816778;77;21260;-88
2021/12/07 14:59:08;;;;;;;36.55;20.45;;;;;;;;;;1803822;78;21219;-89
2021/12/07 15:01:57;;;;;;;28.90;19.23;;;;;;;;;;1812396;78;21118;-88
2021/12/07 15:04:28;;;;;;;32.00;20.05;;;;;;;;;;1790547;79;21123;-87
2021/12/07 15:07:00;;;;;;;32.55;20.55;;;;;;;;;;1802899;78;21155;-87
2021/12/07 15:09:32;;;;;;;33.48;19.35;;;;;;;;;;1801064;78;21170;-88
2021/12/07 15:12:16;;;;;;;38.20;20.52;;;;;;;;;;1801060;78;21088;-86
2021/12/07 15:14:46;;;;;;;31.62;21.37;;;;;;;;;;1796804;78;21737;-88
2021/12/07 15:17:25;;;;;;;34.27;20.75;;;;;;;;;;1799550;80;21095;-87
2021/12/07 15:20:10;;;;;;;36.25;22.15;;;;;;;;;;1802886;78;21119;-88
2021/12/07 15:22:32;;;;;;;36.03;20.48;;;;;;;;;;1799300;78;21166;-88
2021/12/07 15:25:12;;;;;;;34.45;22.45;;;;;;;;;;1749874;81;21108;-88
2021/12/07 15:27:36;;;;;;;33.60;22.42;;;;;;;;;;1788813;78;21025;-88
2021/12/07 15:30:06;;;;;;;34.40;22.48;;;;;;;;;;1804732;78;21173;-87
2021/12/07 15:32:37;;;;;;;45.43;24.27;;;;;;;;;;1794180;78;21083;-87
2021/12/07 15:35:08;;;;;;;41.23;23.80;;;;;;;;;;1800754;78;21147;-87
2021/12/07 15:37:40;;;;;;;40.70;23.52;;;;;;;;;;1796410;79;21166;-87
2021/12/07 15:40:12;;;;;;;39.90;24.92;;;;;;;;;;1800268;78;21132;-87
2021/12/07 15:42:44;;;;;;;38.15;23.55;;;;;;;;;;1750356;80;21104;-87
2021/12/07 15:45:14;;;;;;;39.00;24.45;;;;;;;;;;1779174;77;21112;-86
2021/12/07 15:47:46;;;;;;;38.55;23.90;;;;;;;;;;1799238;76;21104;-86
2021/12/07 15:50:17;;;;;;;36.35;24.45;;;;;;;;;;1799444;79;21045;-88
2021/12/07 15:52:49;;;;;;;37.48;23.67;;;;;;;;;;1798900;79;21135;-86
2021/12/07 15:55:25;;;;;;;36.28;23.45;;;;;;;;;;1805849;77;21079;-86
2021/12/07 15:57:56;;;;;;;35.50;24.37;;;;;;;;;;1831858;77;21206;-86
2021/12/07 16:00:32;;;;;;;42.20;23.95;;;;;;;;;;1805085;79;21171;-86
2021/12/07 16:03:02;;;;;;;43.68;23.92;;;;;;;;;;1813701;76;21162;-87
2021/12/07 16:05:37;;;;;;;38.70;24.92;;;;;;;;;;1844844;74;21117;-86
2021/12/07 16:08:08;;;;;;;39.35;24.20;;;;;;;;;;1835972;77;21241;-87
2021/12/07 16:10:39;;;;;;;41.50;24.63;;;;;;;;;;1784919;74;21167;-88
2021/12/07 16:13:14;;;;;;;38.63;24.37;;;;;;;;;;1776174;78;21199;-88
2021/12/07 16:15:45;;;;;;;39.90;23.70;;;;;;;;;;1836510;76;21068;-87
2021/12/07 16:18:16;;;;;;;32.65;23.10;;;;;;;;;;1829203;77;21214;-88
2021/12/07 16:20:46;;;;;;;42.83;25.30;;;;;;;;;;1835911;78;21187;-88
2021/12/07 16:23:18;;;;;;;38.85;24.18;;;;;;;;;;1836180;77;21118;-86
2021/12/07 16:25:49;;;;;;;37.30;22.95;;;;;;;;;;1837095;77;21084;-87
2021/12/07 16:28:20;;;;;;;40.55;23.12;;;;;;;;;;1831350;77;21182;-87
2021/12/07 16:30:52;;;;;;;34.38;22.50;;;;;;;;;;1784020;78;21665;-88
2021/12/07 16:33:22;;;;;;;32.15;21.15;;;;;;;;;;1741599;81;21220;-87
2021/12/07 16:35:55;;;;;;;30.10;22.48;;;;;;;;;;1840447;77;21107;-87
2021/12/07 16:38:27;;;;;;;35.80;22.27;;;;;;;;;;1833590;77;21085;-87